sensor_id;sensor_type;location;lat;lon;timestamp;P1;durP1;ratioP1;P2;durP2;ratioP2
30613;SDS011;17381;51.690;5.270;2023-04-28T00:00:16;11.88;;;6.20;;
30613;SDS011;17381;51.690;5.270;2023-04-28T00:06:11;9.80;;;5.13;;
30613;SDS011;17381;51.690;5.270;2023-04-28T00:08:52;10.85;;;5.47;;
30613;SDS011;17381;51.690;5.270;2023-04-28T00:12:00;10.65;;;6.07;;
30613;SDS011;17381;51.690;5.270;2023-04-28T00:14:28;12.10;;;5.50;;
30613;SDS011;17381;51.690;5.270;2023-04-28T00:20:35;12.40;;;6.13;;
30613;SDS011;17381;51.690;5.270;2023-04-28T00:23:14;11.60;;;6.00;;
30613;SDS011;17381;51.690;5.270;2023-04-28T00:26:15;10.05;;;6.18;;
30613;SDS011;17381;51.690;5.270;2023-04-28T00:29:45;9.70;;;6.22;;
30613;SDS011;17381;51.690;5.270;2023-04-28T00:32:32;11.65;;;6.47;;
30613;SDS011;17381;51.690;5.270;2023-04-28T00:35:40;11.93;;;6.20;;
30613;SDS011;17381;51.690;5.270;2023-04-28T00:38:43;11.68;;;5.72;;
30613;SDS011;17381;51.690;5.270;2023-04-28T00:41:34;10.90;;;6.53;;
30613;SDS011;17381;51.690;5.270;2023-04-28T00:44:32;9.15;;;6.07;;
30613;SDS011;17381;51.690;5.270;2023-04-28T00:47:15;11.77;;;6.15;;
30613;SDS011;17381;51.690;5.270;2023-04-28T00:50:39;13.48;;;7.13;;
30613;SDS011;17381;51.690;5.270;2023-04-28T00:53:07;11.00;;;6.90;;
30613;SDS011;17381;51.690;5.270;2023-04-28T00:56:00;10.10;;;6.78;;
30613;SDS011;17381;51.690;5.270;2023-04-28T00:58:53;9.10;;;6.35;;
30613;SDS011;17381;51.690;5.270;2023-04-28T01:01:51;11.95;;;6.72;;
30613;SDS011;17381;51.690;5.270;2023-04-28T01:04:23;11.68;;;6.45;;
30613;SDS011;17381;51.690;5.270;2023-04-28T01:07:05;11.02;;;6.70;;
30613;SDS011;17381;51.690;5.270;2023-04-28T01:09:37;9.38;;;6.45;;
30613;SDS011;17381;51.690;5.270;2023-04-28T01:12:36;10.13;;;6.35;;
30613;SDS011;17381;51.690;5.270;2023-04-28T01:15:22;12.45;;;7.72;;
30613;SDS011;17381;51.690;5.270;2023-04-28T01:18:41;12.18;;;7.07;;
30613;SDS011;17381;51.690;5.270;2023-04-28T01:21:46;10.45;;;6.70;;
30613;SDS011;17381;51.690;5.270;2023-04-28T01:24:34;11.23;;;6.60;;
30613;SDS011;17381;51.690;5.270;2023-04-28T01:27:26;12.65;;;7.15;;
30613;SDS011;17381;51.690;5.270;2023-04-28T01:30:32;11.10;;;7.13;;
30613;SDS011;17381;51.690;5.270;2023-04-28T01:33:32;10.90;;;6.40;;
30613;SDS011;17381;51.690;5.270;2023-04-28T01:39:07;11.73;;;7.72;;
30613;SDS011;17381;51.690;5.270;2023-04-28T01:42:31;11.68;;;6.75;;
30613;SDS011;17381;51.690;5.270;2023-04-28T01:45:18;9.48;;;5.85;;
30613;SDS011;17381;51.690;5.270;2023-04-28T01:48:19;12.15;;;7.35;;
30613;SDS011;17381;51.690;5.270;2023-04-28T01:51:12;14.30;;;7.23;;
30613;SDS011;17381;51.690;5.270;2023-04-28T01:54:11;14.48;;;7.28;;
30613;SDS011;17381;51.690;5.270;2023-04-28T01:56:41;13.90;;;7.78;;
30613;SDS011;17381;51.690;5.270;2023-04-28T01:59:22;11.43;;;7.00;;
30613;SDS011;17381;51.690;5.270;2023-04-28T02:02:36;10.65;;;7.03;;
30613;SDS011;17381;51.690;5.270;2023-04-28T02:05:32;12.80;;;7.75;;
30613;SDS011;17381;51.690;5.270;2023-04-28T02:08:20;12.23;;;7.65;;
30613;SDS011;17381;51.690;5.270;2023-04-28T02:11:27;12.02;;;6.82;;
30613;SDS011;17381;51.690;5.270;2023-04-28T02:14:14;13.20;;;7.47;;
30613;SDS011;17381;51.690;5.270;2023-04-28T02:17:01;15.13;;;7.22;;
30613;SDS011;17381;51.690;5.270;2023-04-28T02:19:40;15.70;;;7.72;;
30613;SDS011;17381;51.690;5.270;2023-04-28T02:22:35;11.73;;;7.32;;
30613;SDS011;17381;51.690;5.270;2023-04-28T02:25:26;12.07;;;8.13;;
30613;SDS011;17381;51.690;5.270;2023-04-28T02:28:19;10.98;;;7.18;;
30613;SDS011;17381;51.690;5.270;2023-04-28T02:30:45;13.50;;;7.43;;
30613;SDS011;17381;51.690;5.270;2023-04-28T02:33:58;14.10;;;8.18;;
30613;SDS011;17381;51.690;5.270;2023-04-28T02:36:30;10.65;;;6.93;;
30613;SDS011;17381;51.690;5.270;2023-04-28T02:39:42;11.65;;;7.28;;
30613;SDS011;17381;51.690;5.270;2023-04-28T02:42:38;15.38;;;7.80;;
30613;SDS011;17381;51.690;5.270;2023-04-28T02:45:19;11.10;;;7.32;;
30613;SDS011;17381;51.690;5.270;2023-04-28T02:47:51;10.60;;;6.78;;
30613;SDS011;17381;51.690;5.270;2023-04-28T02:50:29;14.63;;;8.13;;
30613;SDS011;17381;51.690;5.270;2023-04-28T02:53:23;13.98;;;8.38;;
30613;SDS011;17381;51.690;5.270;2023-04-28T02:56:13;12.75;;;7.63;;
30613;SDS011;17381;51.690;5.270;2023-04-28T02:59:11;12.57;;;7.40;;
30613;SDS011;17381;51.690;5.270;2023-04-28T03:02:31;12.85;;;8.10;;
30613;SDS011;17381;51.690;5.270;2023-04-28T03:05:10;13.23;;;7.93;;
30613;SDS011;17381;51.690;5.270;2023-04-28T03:08:08;11.43;;;7.22;;
30613;SDS011;17381;51.690;5.270;2023-04-28T03:10:46;17.33;;;8.82;;
30613;SDS011;17381;51.690;5.270;2023-04-28T03:13:33;16.15;;;8.05;;
30613;SDS011;17381;51.690;5.270;2023-04-28T03:16:27;14.25;;;8.45;;
30613;SDS011;17381;51.690;5.270;2023-04-28T03:19:26;11.15;;;7.70;;
30613;SDS011;17381;51.690;5.270;2023-04-28T03:22:23;13.75;;;8.18;;
30613;SDS011;17381;51.690;5.270;2023-04-28T03:25:16;16.63;;;8.27;;
30613;SDS011;17381;51.690;5.270;2023-04-28T03:27:56;14.70;;;8.57;;
30613;SDS011;17381;51.690;5.270;2023-04-28T03:30:44;21.80;;;8.68;;
30613;SDS011;17381;51.690;5.270;2023-04-28T03:33:30;14.63;;;7.70;;
30613;SDS011;17381;51.690;5.270;2023-04-28T03:36:20;16.95;;;8.73;;
30613;SDS011;17381;51.690;5.270;2023-04-28T03:39:03;14.48;;;8.15;;
30613;SDS011;17381;51.690;5.270;2023-04-28T03:41:54;14.38;;;8.27;;
30613;SDS011;17381;51.690;5.270;2023-04-28T03:45:20;15.98;;;8.68;;
30613;SDS011;17381;51.690;5.270;2023-04-28T03:47:53;13.40;;;8.75;;
30613;SDS011;17381;51.690;5.270;2023-04-28T03:50:29;14.32;;;8.18;;
30613;SDS011;17381;51.690;5.270;2023-04-28T03:53:38;11.75;;;8.00;;
30613;SDS011;17381;51.690;5.270;2023-04-28T03:56:20;12.90;;;8.55;;
30613;SDS011;17381;51.690;5.270;2023-04-28T03:58:59;15.18;;;8.07;;
30613;SDS011;17381;51.690;5.270;2023-04-28T04:13:27;13.20;;;8.15;;
30613;SDS011;17381;51.690;5.270;2023-04-28T04:16:19;13.50;;;8.13;;
30613;SDS011;17381;51.690;5.270;2023-04-28T04:19:18;13.98;;;8.50;;
30613;SDS011;17381;51.690;5.270;2023-04-28T04:22:02;14.70;;;8.07;;
30613;SDS011;17381;51.690;5.270;2023-04-28T04:24:56;14.40;;;9.25;;
30613;SDS011;17381;51.690;5.270;2023-04-28T04:27:53;13.05;;;8.20;;
30613;SDS011;17381;51.690;5.270;2023-04-28T04:31:04;12.35;;;8.52;;
30613;SDS011;17381;51.690;5.270;2023-04-28T04:34:00;11.57;;;7.80;;
30613;SDS011;17381;51.690;5.270;2023-04-28T04:36:39;16.27;;;9.20;;
30613;SDS011;17381;51.690;5.270;2023-04-28T04:39:30;16.00;;;9.18;;
30613;SDS011;17381;51.690;5.270;2023-04-28T04:42:41;15.05;;;9.60;;
30613;SDS011;17381;51.690;5.270;2023-04-28T04:45:31;12.68;;;8.98;;
30613;SDS011;17381;51.690;5.270;2023-04-28T04:48:32;13.57;;;8.43;;
30613;SDS011;17381;51.690;5.270;2023-04-28T04:54:35;14.15;;;8.55;;
30613;SDS011;17381;51.690;5.270;2023-04-28T04:57:58;17.60;;;10.43;;
30613;SDS011;17381;51.690;5.270;2023-04-28T05:01:10;14.05;;;8.80;;
30613;SDS011;17381;51.690;5.270;2023-04-28T05:04:00;21.10;;;11.05;;
30613;SDS011;17381;51.690;5.270;2023-04-28T05:06:38;16.65;;;10.38;;
30613;SDS011;17381;51.690;5.270;2023-04-28T05:09:35;14.27;;;9.57;;
30613;SDS011;17381;51.690;5.270;2023-04-28T05:12:07;16.42;;;9.73;;
30613;SDS011;17381;51.690;5.270;2023-04-28T05:14:55;16.63;;;9.88;;
30613;SDS011;17381;51.690;5.270;2023-04-28T05:18:16;13.80;;;9.23;;
30613;SDS011;17381;51.690;5.270;2023-04-28T05:20:53;15.05;;;9.98;;
30613;SDS011;17381;51.690;5.270;2023-04-28T05:23:38;15.60;;;9.68;;
30613;SDS011;17381;51.690;5.270;2023-04-28T05:29:28;16.85;;;10.38;;
30613;SDS011;17381;51.690;5.270;2023-04-28T05:32:34;14.32;;;9.05;;
30613;SDS011;17381;51.690;5.270;2023-04-28T05:35:21;15.40;;;9.10;;
30613;SDS011;17381;51.690;5.270;2023-04-28T05:38:08;15.35;;;9.88;;
30613;SDS011;17381;51.690;5.270;2023-04-28T05:40:40;18.40;;;10.15;;
30613;SDS011;17381;51.690;5.270;2023-04-28T05:43:39;20.77;;;12.30;;
30613;SDS011;17381;51.690;5.270;2023-04-28T05:46:20;14.07;;;9.93;;
30613;SDS011;17381;51.690;5.270;2023-04-28T05:48:50;13.60;;;9.65;;
30613;SDS011;17381;51.690;5.270;2023-04-28T05:51:40;16.20;;;10.25;;
30613;SDS011;17381;51.690;5.270;2023-04-28T05:57:08;16.02;;;9.93;;
30613;SDS011;17381;51.690;5.270;2023-04-28T06:00:18;17.65;;;10.05;;
30613;SDS011;17381;51.690;5.270;2023-04-28T06:03:46;16.13;;;9.82;;
30613;SDS011;17381;51.690;5.270;2023-04-28T06:07:06;13.30;;;8.85;;
30613;SDS011;17381;51.690;5.270;2023-04-28T06:10:08;15.02;;;9.73;;
30613;SDS011;17381;51.690;5.270;2023-04-28T06:13:11;13.70;;;9.23;;
30613;SDS011;17381;51.690;5.270;2023-04-28T06:15:38;13.23;;;8.73;;
30613;SDS011;17381;51.690;5.270;2023-04-28T06:18:09;13.43;;;8.77;;
30613;SDS011;17381;51.690;5.270;2023-04-28T06:20:58;15.45;;;9.50;;
30613;SDS011;17381;51.690;5.270;2023-04-28T06:23:57;17.05;;;10.05;;
30613;SDS011;17381;51.690;5.270;2023-04-28T06:26:49;17.27;;;11.13;;
30613;SDS011;17381;51.690;5.270;2023-04-28T06:29:31;17.15;;;10.32;;
30613;SDS011;17381;51.690;5.270;2023-04-28T06:32:10;14.27;;;9.32;;
30613;SDS011;17381;51.690;5.270;2023-04-28T06:34:59;16.65;;;9.90;;
30613;SDS011;17381;51.690;5.270;2023-04-28T06:38:13;14.50;;;9.77;;
30613;SDS011;17381;51.690;5.270;2023-04-28T06:44:05;15.07;;;10.15;;
30613;SDS011;17381;51.690;5.270;2023-04-28T06:47:08;16.58;;;10.90;;
30613;SDS011;17381;51.690;5.270;2023-04-28T06:50:09;13.70;;;9.77;;
30613;SDS011;17381;51.690;5.270;2023-04-28T06:52:40;13.13;;;9.10;;
30613;SDS011;17381;51.690;5.270;2023-04-28T06:55:32;15.25;;;10.10;;
30613;SDS011;17381;51.690;5.270;2023-04-28T06:58:07;16.95;;;11.38;;
30613;SDS011;17381;51.690;5.270;2023-04-28T07:01:13;16.65;;;10.75;;
30613;SDS011;17381;51.690;5.270;2023-04-28T07:04:04;18.52;;;10.80;;
30613;SDS011;17381;51.690;5.270;2023-04-28T07:09:34;18.02;;;10.95;;
30613;SDS011;17381;51.690;5.270;2023-04-28T07:12:24;17.38;;;10.85;;
30613;SDS011;17381;51.690;5.270;2023-04-28T07:15:16;14.55;;;10.10;;
30613;SDS011;17381;51.690;5.270;2023-04-28T07:17:49;17.92;;;10.15;;
30613;SDS011;17381;51.690;5.270;2023-04-28T07:20:47;14.55;;;9.73;;
30613;SDS011;17381;51.690;5.270;2023-04-28T07:24:05;15.35;;;9.80;;
30613;SDS011;17381;51.690;5.270;2023-04-28T07:26:39;14.63;;;10.15;;
30613;SDS011;17381;51.690;5.270;2023-04-28T07:29:13;15.80;;;10.98;;
30613;SDS011;17381;51.690;5.270;2023-04-28T07:32:13;15.10;;;10.43;;
30613;SDS011;17381;51.690;5.270;2023-04-28T07:35:10;18.38;;;12.35;;
30613;SDS011;17381;51.690;5.270;2023-04-28T07:38:09;16.35;;;10.88;;
30613;SDS011;17381;51.690;5.270;2023-04-28T07:40:57;16.42;;;11.05;;
30613;SDS011;17381;51.690;5.270;2023-04-28T07:43:51;15.15;;;10.20;;
30613;SDS011;17381;51.690;5.270;2023-04-28T07:46:46;13.52;;;9.90;;
30613;SDS011;17381;51.690;5.270;2023-04-28T07:49:32;15.95;;;10.32;;
30613;SDS011;17381;51.690;5.270;2023-04-28T07:52:20;13.63;;;9.35;;
30613;SDS011;17381;51.690;5.270;2023-04-28T07:55:04;14.00;;;10.18;;
30613;SDS011;17381;51.690;5.270;2023-04-28T07:58:03;15.57;;;10.43;;
30613;SDS011;17381;51.690;5.270;2023-04-28T08:01:07;15.10;;;10.60;;
30613;SDS011;17381;51.690;5.270;2023-04-28T08:04:09;16.80;;;10.80;;
30613;SDS011;17381;51.690;5.270;2023-04-28T08:07:21;16.75;;;11.07;;
30613;SDS011;17381;51.690;5.270;2023-04-28T08:10:14;15.20;;;11.02;;
30613;SDS011;17381;51.690;5.270;2023-04-28T08:12:48;16.00;;;10.98;;
30613;SDS011;17381;51.690;5.270;2023-04-28T08:15:43;13.95;;;10.45;;
30613;SDS011;17381;51.690;5.270;2023-04-28T08:18:55;14.38;;;10.07;;
30613;SDS011;17381;51.690;5.270;2023-04-28T08:22:10;17.33;;;10.73;;
30613;SDS011;17381;51.690;5.270;2023-04-28T08:24:47;13.65;;;10.80;;
30613;SDS011;17381;51.690;5.270;2023-04-28T08:30:15;16.95;;;11.10;;
30613;SDS011;17381;51.690;5.270;2023-04-28T08:33:22;16.90;;;10.90;;
30613;SDS011;17381;51.690;5.270;2023-04-28T08:36:24;14.52;;;10.75;;
30613;SDS011;17381;51.690;5.270;2023-04-28T08:39:06;14.50;;;10.27;;
30613;SDS011;17381;51.690;5.270;2023-04-28T08:41:58;14.52;;;10.60;;
30613;SDS011;17381;51.690;5.270;2023-04-28T08:44:52;14.50;;;10.25;;
30613;SDS011;17381;51.690;5.270;2023-04-28T08:47:49;13.07;;;10.20;;
30613;SDS011;17381;51.690;5.270;2023-04-28T08:50:25;12.68;;;9.18;;
30613;SDS011;17381;51.690;5.270;2023-04-28T08:53:33;12.68;;;9.68;;
30613;SDS011;17381;51.690;5.270;2023-04-28T08:56:32;13.38;;;9.25;;
30613;SDS011;17381;51.690;5.270;2023-04-28T08:59:29;15.80;;;10.02;;
30613;SDS011;17381;51.690;5.270;2023-04-28T09:02:21;13.77;;;10.48;;
30613;SDS011;17381;51.690;5.270;2023-04-28T09:05:33;15.48;;;10.88;;
30613;SDS011;17381;51.690;5.270;2023-04-28T09:08:22;14.65;;;9.80;;
30613;SDS011;17381;51.690;5.270;2023-04-28T09:14:10;14.93;;;11.02;;
30613;SDS011;17381;51.690;5.270;2023-04-28T09:16:55;15.60;;;11.10;;
30613;SDS011;17381;51.690;5.270;2023-04-28T09:19:34;16.95;;;11.68;;
30613;SDS011;17381;51.690;5.270;2023-04-28T09:22:09;14.52;;;10.75;;
30613;SDS011;17381;51.690;5.270;2023-04-28T09:25:09;15.30;;;10.85;;
30613;SDS011;17381;51.690;5.270;2023-04-28T09:27:42;16.00;;;10.32;;
30613;SDS011;17381;51.690;5.270;2023-04-28T09:33:38;16.73;;;11.30;;
30613;SDS011;17381;51.690;5.270;2023-04-28T09:36:47;15.15;;;10.70;;
30613;SDS011;17381;51.690;5.270;2023-04-28T09:42:53;16.17;;;11.60;;
30613;SDS011;17381;51.690;5.270;2023-04-28T09:45:25;17.23;;;12.65;;
30613;SDS011;17381;51.690;5.270;2023-04-28T09:48:54;17.13;;;12.55;;
30613;SDS011;17381;51.690;5.270;2023-04-28T09:51:54;19.85;;;13.90;;
30613;SDS011;17381;51.690;5.270;2023-04-28T09:58:34;22.45;;;13.65;;
30613;SDS011;17381;51.690;5.270;2023-04-28T10:01:15;23.58;;;15.15;;
30613;SDS011;17381;51.690;5.270;2023-04-28T10:03:51;25.80;;;14.82;;
30613;SDS011;17381;51.690;5.270;2023-04-28T10:06:49;17.00;;;13.40;;
30613;SDS011;17381;51.690;5.270;2023-04-28T10:09:34;19.27;;;13.60;;
30613;SDS011;17381;51.690;5.270;2023-04-28T10:12:33;18.00;;;13.43;;
30613;SDS011;17381;51.690;5.270;2023-04-28T10:15:25;18.48;;;13.93;;
30613;SDS011;17381;51.690;5.270;2023-04-28T10:18:16;18.55;;;13.23;;
30613;SDS011;17381;51.690;5.270;2023-04-28T10:21:39;19.85;;;13.20;;
30613;SDS011;17381;51.690;5.270;2023-04-28T10:24:46;16.63;;;12.73;;
30613;SDS011;17381;51.690;5.270;2023-04-28T10:27:46;17.27;;;12.82;;
30613;SDS011;17381;51.690;5.270;2023-04-28T10:30:42;16.70;;;13.23;;
30613;SDS011;17381;51.690;5.270;2023-04-28T10:34:20;22.50;;;15.73;;
30613;SDS011;17381;51.690;5.270;2023-04-28T10:40:27;23.27;;;15.98;;
30613;SDS011;17381;51.690;5.270;2023-04-28T10:46:32;24.02;;;17.60;;
30613;SDS011;17381;51.690;5.270;2023-04-28T10:53:09;20.20;;;13.45;;
30613;SDS011;17381;51.690;5.270;2023-04-28T10:59:24;20.92;;;13.30;;
30613;SDS011;17381;51.690;5.270;2023-04-28T11:02:20;20.63;;;14.07;;
30613;SDS011;17381;51.690;5.270;2023-04-28T11:05:26;18.15;;;12.98;;
30613;SDS011;17381;51.690;5.270;2023-04-28T11:12:03;53.70;;;33.33;;
30613;SDS011;17381;51.690;5.270;2023-04-28T11:14:51;25.80;;;16.25;;
30613;SDS011;17381;51.690;5.270;2023-04-28T11:17:50;21.13;;;14.88;;
30613;SDS011;17381;51.690;5.270;2023-04-28T11:20:22;17.10;;;11.77;;
30613;SDS011;17381;51.690;5.270;2023-04-28T11:23:20;18.38;;;13.18;;
30613;SDS011;17381;51.690;5.270;2023-04-28T11:26:30;19.45;;;11.93;;
30613;SDS011;17381;51.690;5.270;2023-04-28T11:29:41;16.17;;;12.00;;
30613;SDS011;17381;51.690;5.270;2023-04-28T11:32:35;17.45;;;13.10;;
30613;SDS011;17381;51.690;5.270;2023-04-28T11:35:23;17.92;;;11.82;;
30613;SDS011;17381;51.690;5.270;2023-04-28T11:38:08;16.77;;;11.52;;
30613;SDS011;17381;51.690;5.270;2023-04-28T11:41:08;15.73;;;10.65;;
30613;SDS011;17381;51.690;5.270;2023-04-28T11:44:24;16.02;;;11.95;;
30613;SDS011;17381;51.690;5.270;2023-04-28T11:46:59;18.80;;;10.75;;
30613;SDS011;17381;51.690;5.270;2023-04-28T11:50:11;12.68;;;9.85;;
30613;SDS011;17381;51.690;5.270;2023-04-28T11:53:39;13.43;;;9.68;;
30613;SDS011;17381;51.690;5.270;2023-04-28T11:56:46;13.05;;;9.20;;
30613;SDS011;17381;51.690;5.270;2023-04-28T11:59:40;10.77;;;7.25;;
30613;SDS011;17381;51.690;5.270;2023-04-28T12:29:06;6.10;;;3.85;;
30613;SDS011;17381;51.690;5.270;2023-04-28T12:32:09;7.10;;;3.78;;
30613;SDS011;17381;51.690;5.270;2023-04-28T12:42:36;5.97;;;3.90;;
30613;SDS011;17381;51.690;5.270;2023-04-28T12:45:35;6.88;;;4.78;;
30613;SDS011;17381;51.690;5.270;2023-04-28T12:48:24;5.60;;;4.07;;
30613;SDS011;17381;51.690;5.270;2023-04-28T12:51:12;6.28;;;3.90;;
30613;SDS011;17381;51.690;5.270;2023-04-28T12:54:20;5.65;;;3.50;;
30613;SDS011;17381;51.690;5.270;2023-04-28T13:07:47;7.05;;;3.88;;
30613;SDS011;17381;51.690;5.270;2023-04-28T13:10:43;5.47;;;3.85;;
30613;SDS011;17381;51.690;5.270;2023-04-28T13:13:46;6.47;;;4.10;;
30613;SDS011;17381;51.690;5.270;2023-04-28T13:16:29;5.03;;;3.10;;
30613;SDS011;17381;51.690;5.270;2023-04-28T13:19:04;4.43;;;2.97;;
30613;SDS011;17381;51.690;5.270;2023-04-28T13:22:10;4.80;;;2.95;;
30613;SDS011;17381;51.690;5.270;2023-04-28T13:24:47;7.22;;;3.55;;
30613;SDS011;17381;51.690;5.270;2023-04-28T13:27:35;6.22;;;3.42;;
30613;SDS011;17381;51.690;5.270;2023-04-28T13:30:13;5.95;;;3.58;;
30613;SDS011;17381;51.690;5.270;2023-04-28T13:33:12;6.18;;;3.75;;
30613;SDS011;17381;51.690;5.270;2023-04-28T13:36:26;7.38;;;4.97;;
30613;SDS011;17381;51.690;5.270;2023-04-28T13:39:20;6.10;;;4.32;;
30613;SDS011;17381;51.690;5.270;2023-04-28T13:41:56;6.25;;;3.97;;
30613;SDS011;17381;51.690;5.270;2023-04-28T13:44:35;7.00;;;4.75;;
30613;SDS011;17381;51.690;5.270;2023-04-28T13:47:33;7.97;;;5.15;;
30613;SDS011;17381;51.690;5.270;2023-04-28T13:50:51;9.90;;;7.45;;
30613;SDS011;17381;51.690;5.270;2023-04-28T13:56:26;7.70;;;5.43;;
30613;SDS011;17381;51.690;5.270;2023-04-28T13:59:20;6.35;;;4.25;;
30613;SDS011;17381;51.690;5.270;2023-04-28T14:02:33;6.95;;;4.53;;
30613;SDS011;17381;51.690;5.270;2023-04-28T14:05:10;6.20;;;3.90;;
30613;SDS011;17381;51.690;5.270;2023-04-28T14:07:49;4.22;;;3.00;;
30613;SDS011;17381;51.690;5.270;2023-04-28T14:10:38;5.43;;;3.20;;
30613;SDS011;17381;51.690;5.270;2023-04-28T14:13:11;9.25;;;4.82;;
30613;SDS011;17381;51.690;5.270;2023-04-28T14:15:58;4.72;;;3.20;;
30613;SDS011;17381;51.690;5.270;2023-04-28T14:18:58;3.88;;;2.38;;
30613;SDS011;17381;51.690;5.270;2023-04-28T14:21:50;4.97;;;2.38;;
30613;SDS011;17381;51.690;5.270;2023-04-28T14:24:49;4.68;;;2.53;;
30613;SDS011;17381;51.690;5.270;2023-04-28T14:28:01;4.28;;;2.50;;
30613;SDS011;17381;51.690;5.270;2023-04-28T14:30:50;7.90;;;4.10;;
30613;SDS011;17381;51.690;5.270;2023-04-28T14:33:45;7.75;;;4.88;;
30613;SDS011;17381;51.690;5.270;2023-04-28T14:36:19;6.50;;;3.83;;
30613;SDS011;17381;51.690;5.270;2023-04-28T14:39:05;6.50;;;4.07;;
30613;SDS011;17381;51.690;5.270;2023-04-28T14:42:04;7.20;;;4.20;;
30613;SDS011;17381;51.690;5.270;2023-04-28T14:45:01;7.30;;;4.57;;
30613;SDS011;17381;51.690;5.270;2023-04-28T14:47:52;9.50;;;5.35;;
30613;SDS011;17381;51.690;5.270;2023-04-28T14:51:08;10.48;;;6.30;;
30613;SDS011;17381;51.690;5.270;2023-04-28T14:54:00;13.60;;;8.68;;
30613;SDS011;17381;51.690;5.270;2023-04-28T14:56:33;12.15;;;7.53;;
30613;SDS011;17381;51.690;5.270;2023-04-28T14:59:08;13.75;;;8.18;;
30613;SDS011;17381;51.690;5.270;2023-04-28T15:01:38;11.57;;;8.07;;
30613;SDS011;17381;51.690;5.270;2023-04-28T15:04:16;10.45;;;7.10;;
30613;SDS011;17381;51.690;5.270;2023-04-28T15:07:02;12.65;;;8.35;;
30613;SDS011;17381;51.690;5.270;2023-04-28T15:09:56;20.65;;;15.50;;
30613;SDS011;17381;51.690;5.270;2023-04-28T15:12:40;13.73;;;9.77;;
30613;SDS011;17381;51.690;5.270;2023-04-28T15:15:28;12.93;;;8.30;;
30613;SDS011;17381;51.690;5.270;2023-04-28T15:18:10;13.25;;;8.45;;
30613;SDS011;17381;51.690;5.270;2023-04-28T15:20:48;15.63;;;10.10;;
30613;SDS011;17381;51.690;5.270;2023-04-28T15:23:49;17.00;;;11.23;;
30613;SDS011;17381;51.690;5.270;2023-04-28T15:26:21;14.40;;;8.90;;
30613;SDS011;17381;51.690;5.270;2023-04-28T15:28:53;14.52;;;9.38;;
30613;SDS011;17381;51.690;5.270;2023-04-28T15:31:33;13.75;;;9.88;;
30613;SDS011;17381;51.690;5.270;2023-04-28T15:34:21;14.50;;;10.13;;
30613;SDS011;17381;51.690;5.270;2023-04-28T15:43:05;12.35;;;7.68;;
30613;SDS011;17381;51.690;5.270;2023-04-28T15:45:55;11.55;;;7.40;;
30613;SDS011;17381;51.690;5.270;2023-04-28T15:48:45;11.68;;;7.20;;
30613;SDS011;17381;51.690;5.270;2023-04-28T15:51:28;11.45;;;7.63;;
30613;SDS011;17381;51.690;5.270;2023-04-28T15:54:00;10.27;;;7.40;;
30613;SDS011;17381;51.690;5.270;2023-04-28T15:56:42;10.65;;;7.05;;
30613;SDS011;17381;51.690;5.270;2023-04-28T15:59:23;11.40;;;7.18;;
30613;SDS011;17381;51.690;5.270;2023-04-28T16:02:00;10.30;;;6.13;;
30613;SDS011;17381;51.690;5.270;2023-04-28T16:04:38;9.27;;;6.47;;
30613;SDS011;17381;51.690;5.270;2023-04-28T16:07:21;8.75;;;6.20;;
30613;SDS011;17381;51.690;5.270;2023-04-28T16:10:14;10.30;;;7.80;;
30613;SDS011;17381;51.690;5.270;2023-04-28T16:12:55;9.25;;;6.40;;
30613;SDS011;17381;51.690;5.270;2023-04-28T16:15:32;18.42;;;11.55;;
30613;SDS011;17381;51.690;5.270;2023-04-28T16:18:08;15.90;;;9.60;;
30613;SDS011;17381;51.690;5.270;2023-04-28T16:20:57;7.88;;;5.72;;
30613;SDS011;17381;51.690;5.270;2023-04-28T16:23:47;8.93;;;6.07;;
30613;SDS011;17381;51.690;5.270;2023-04-28T16:26:39;11.23;;;5.85;;
30613;SDS011;17381;51.690;5.270;2023-04-28T16:29:43;9.20;;;5.45;;
30613;SDS011;17381;51.690;5.270;2023-04-28T16:32:36;10.65;;;6.15;;
30613;SDS011;17381;51.690;5.270;2023-04-28T16:35:15;10.02;;;5.57;;
30613;SDS011;17381;51.690;5.270;2023-04-28T16:37:59;10.82;;;5.95;;
30613;SDS011;17381;51.690;5.270;2023-04-28T16:40:34;10.07;;;5.68;;
30613;SDS011;17381;51.690;5.270;2023-04-28T16:43:13;10.32;;;5.95;;
30613;SDS011;17381;51.690;5.270;2023-04-28T16:49:24;11.75;;;6.60;;
30613;SDS011;17381;51.690;5.270;2023-04-28T16:52:00;10.55;;;6.30;;
30613;SDS011;17381;51.690;5.270;2023-04-28T16:57:25;12.70;;;7.15;;
30613;SDS011;17381;51.690;5.270;2023-04-28T17:14:59;11.32;;;5.15;;
30613;SDS011;17381;51.690;5.270;2023-04-28T18:13:14;11.05;;;7.30;;
30613;SDS011;17381;51.690;5.270;2023-04-28T20:50:37;43.00;;;22.85;;
30613;SDS011;17381;51.690;5.270;2023-04-28T20:53:21;49.45;;;24.55;;
30613;SDS011;17381;51.690;5.270;2023-04-28T20:56:03;47.65;;;25.58;;
30613;SDS011;17381;51.690;5.270;2023-04-28T21:46:47;37.72;;;22.77;;
30613;SDS011;17381;51.690;5.270;2023-04-28T21:50:10;40.47;;;22.75;;
30613;SDS011;17381;51.690;5.270;2023-04-28T23:54:41;27.55;;;18.98;;
30613;SDS011;17381;51.690;5.270;2023-04-28T23:57:22;28.27;;;18.27;;
30613;SDS011;17381;51.690;5.270;2023-04-28T23:59:49;28.48;;;18.17;;
